createdAt,value
2022-11-07T00:02:10.821Z,83.79
2022-11-07T00:04:39.658Z,83.92
2022-11-07T00:07:09.036Z,83.64
2022-11-07T00:09:39.498Z,84.18
2022-11-07T00:12:08.376Z,83.51
2022-11-07T00:14:45.523Z,84.30
2022-11-07T00:17:14.081Z,83.91
2022-11-07T00:19:42.475Z,83.46
2022-11-07T00:22:11.051Z,83.84
2022-11-07T00:24:39.457Z,83.38
2022-11-07T00:27:07.875Z,83.41
2022-11-07T00:29:36.505Z,83.65
2022-11-07T00:32:05.293Z,83.77
2022-11-07T00:34:35.851Z,83.77
2022-11-07T00:37:04.405Z,83.83
2022-11-07T00:39:32.890Z,84.72
2022-11-07T00:42:00.959Z,84.98
2022-11-07T00:44:29.406Z,84.31
2022-11-07T00:46:57.411Z,84.78
2022-11-07T00:49:25.826Z,85.17
2022-11-07T00:51:54.141Z,84.63
2022-11-07T00:54:22.571Z,84.54
2022-11-07T00:56:50.927Z,85.23
2022-11-07T00:59:19.486Z,84.80
2022-11-07T01:01:47.839Z,85.13
2022-11-07T01:04:34.114Z,86.10
2022-11-07T01:07:03.283Z,85.81
2022-11-07T01:09:31.641Z,85.94
2022-11-07T01:12:00.015Z,85.62
2022-11-07T01:14:28.536Z,85.42
2022-11-07T01:16:56.915Z,85.42
2022-11-07T01:19:25.482Z,85.25
2022-11-07T01:21:53.807Z,84.94
2022-11-07T01:24:22.343Z,85.24
2022-11-07T01:26:51.824Z,84.88
2022-11-07T01:29:20.743Z,84.88
2022-11-07T01:31:49.309Z,84.65
2022-11-07T01:34:18.469Z,83.68
2022-11-07T01:36:46.955Z,83.81
2022-11-07T01:43:31.300Z,82.99
2022-11-07T01:45:59.689Z,82.84
2022-11-07T01:48:27.702Z,82.73
2022-11-07T01:50:56.142Z,83.14
2022-11-07T01:53:24.529Z,83.25
2022-11-07T01:55:52.880Z,83.45
2022-11-07T01:58:22.169Z,83.62
2022-11-07T02:00:50.544Z,83.38
2022-11-07T02:03:21.515Z,84.17
2022-11-07T02:06:27.452Z,84.22
2022-11-07T02:08:55.948Z,84.41
2022-11-07T02:11:24.763Z,84.48
2022-11-07T02:13:53.138Z,84.37
2022-11-07T02:16:21.626Z,83.99
2022-11-07T02:18:50.085Z,83.68
2022-11-07T02:21:32.125Z,83.66
2022-11-07T02:24:08.930Z,83.82
2022-11-07T02:26:38.579Z,83.94
2022-11-07T02:29:10.463Z,84.09
2022-11-07T02:31:38.757Z,84.39
2022-11-07T02:34:06.777Z,84.36
2022-11-07T02:36:35.191Z,84.56
2022-11-07T02:39:03.572Z,84.48
2022-11-07T02:41:36.330Z,84.77
2022-11-07T02:44:09.980Z,84.95
2022-11-07T02:46:38.459Z,84.97
2022-11-07T02:49:06.909Z,84.92
2022-11-07T02:51:34.983Z,85.35
2022-11-07T02:54:03.472Z,84.92
2022-11-07T02:56:31.533Z,84.67
2022-11-07T02:58:59.563Z,84.47
2022-11-07T03:01:28.012Z,83.89
2022-11-07T03:03:56.496Z,82.72
2022-11-07T03:06:26.544Z,82.66
2022-11-07T03:08:54.993Z,82.43
2022-11-07T03:11:23.399Z,82.17
2022-11-07T03:13:52.213Z,81.68
2022-11-07T03:16:20.928Z,81.69
2022-11-07T03:18:49.450Z,81.57
2022-11-07T03:21:17.953Z,81.53
2022-11-07T03:23:46.394Z,81.09
2022-11-07T03:26:14.727Z,80.92
2022-11-07T03:28:43.201Z,81.04
2022-11-07T03:31:11.673Z,80.86
2022-11-07T03:33:39.708Z,80.80
2022-11-07T03:36:08.366Z,80.77
2022-11-07T03:38:36.384Z,80.68
2022-11-07T03:41:04.647Z,80.29
2022-11-07T03:43:32.831Z,80.49
2022-11-07T03:46:01.009Z,80.58
2022-11-07T03:48:29.579Z,80.51
2022-11-07T03:50:57.691Z,80.51
2022-11-07T03:53:26.644Z,80.77
2022-11-07T03:55:58.565Z,81.02
2022-11-07T03:58:28.345Z,80.93
2022-11-07T04:00:56.848Z,80.95
2022-11-07T04:03:25.244Z,80.76
2022-11-07T04:05:53.764Z,80.95
2022-11-07T04:08:22.279Z,80.74
2022-11-07T04:10:50.883Z,81.30
2022-11-07T04:13:36.219Z,81.16
2022-11-07T04:16:22.169Z,81.25
2022-11-07T04:18:50.521Z,81.70
2022-11-07T04:21:19.130Z,81.84
2022-11-07T04:23:47.477Z,82.41
2022-11-07T04:26:33.415Z,82.26
2022-11-07T04:29:01.417Z,82.84
2022-11-07T04:31:30.016Z,83.53
2022-11-07T04:33:58.410Z,84.05
2022-11-07T04:36:26.850Z,84.28
2022-11-07T04:38:55.256Z,84.94
2022-11-07T04:41:25.709Z,85.22
2022-11-07T04:43:54.175Z,85.73
2022-11-07T04:46:23.610Z,85.82
2022-11-07T04:48:52.123Z,85.21
2022-11-07T04:51:23.433Z,85.23
2022-11-07T04:53:51.774Z,85.22
2022-11-07T04:56:19.852Z,85.41
2022-11-07T04:58:48.248Z,85.52
2022-11-07T05:01:16.763Z,85.31
2022-11-07T05:03:45.346Z,85.26
2022-11-07T05:06:15.807Z,85.62
2022-11-07T05:08:44.511Z,85.14
2022-11-07T05:11:12.969Z,85.04
2022-11-07T05:13:41.403Z,85.04
2022-11-07T05:16:17.983Z,85.01
2022-11-07T05:18:46.892Z,85.39
2022-11-07T05:21:15.318Z,85.25
2022-11-07T05:23:43.668Z,85.66
2022-11-07T05:26:12.210Z,85.37
2022-11-07T05:28:40.409Z,85.26
2022-11-07T05:31:10.156Z,85.48
2022-11-07T05:33:38.507Z,85.33
2022-11-07T05:36:11.471Z,85.21
2022-11-07T05:38:46.534Z,85.80
2022-11-07T05:41:17.055Z,85.73
2022-11-07T05:43:45.588Z,86.08
2022-11-07T05:46:14.344Z,85.99
2022-11-07T05:48:42.681Z,86.03
2022-11-07T05:51:11.050Z,85.99
2022-11-07T05:53:39.558Z,86.25
2022-11-07T05:56:08.146Z,86.86
2022-11-07T05:58:36.661Z,87.03
2022-11-07T06:01:07.397Z,87.87
2022-11-07T06:03:35.570Z,88.70
2022-11-07T06:06:03.913Z,88.29
2022-11-07T06:08:32.232Z,88.96
2022-11-07T06:11:00.625Z,89.14
2022-11-07T06:13:28.929Z,89.21
2022-11-07T06:15:57.253Z,89.38
2022-11-07T06:18:25.579Z,89.38
2022-11-07T06:20:53.965Z,89.13
2022-11-07T06:23:22.507Z,89.02
2022-11-07T06:25:52.287Z,88.84
2022-11-07T06:28:20.601Z,89.01
2022-11-07T06:30:48.571Z,89.13
2022-11-07T06:33:19.673Z,88.49
2022-11-07T06:35:48.341Z,88.28
2022-11-07T06:38:16.887Z,88.44
2022-11-07T06:40:45.575Z,88.68
2022-11-07T06:43:18.679Z,88.28
2022-11-07T06:45:47.945Z,87.98
2022-11-07T06:48:16.309Z,88.27
2022-11-07T06:50:44.236Z,87.82
2022-11-07T06:53:15.099Z,87.85
2022-11-07T06:55:43.788Z,87.82
2022-11-07T06:58:12.154Z,87.40
2022-11-07T07:00:40.693Z,87.08
2022-11-07T07:03:09.133Z,87.27
2022-11-07T07:05:37.613Z,87.22
2022-11-07T07:08:07.842Z,87.69
2022-11-07T07:10:44.335Z,87.67
2022-11-07T07:13:14.191Z,87.70
2022-11-07T07:15:50.957Z,87.21
2022-11-07T07:18:20.154Z,87.46
2022-11-07T07:20:50.043Z,86.92
2022-11-07T07:23:20.585Z,87.09
2022-11-07T07:25:49.425Z,87.62
2022-11-07T07:28:17.774Z,87.41
2022-11-07T07:30:51.600Z,87.25
2022-11-07T07:33:21.004Z,87.20
2022-11-07T07:35:49.033Z,86.88
2022-11-07T07:38:17.433Z,87.04
2022-11-07T07:43:37.844Z,86.82
2022-11-07T07:46:08.823Z,87.05
2022-11-07T07:48:37.662Z,87.22
2022-11-07T07:51:06.151Z,87.12
2022-11-07T07:53:34.661Z,87.18
2022-11-07T07:56:05.821Z,86.96
2022-11-07T07:58:34.233Z,87.23
2022-11-07T08:01:03.544Z,88.18
2022-11-07T08:03:50.555Z,87.51
2022-11-07T08:06:19.964Z,87.44
2022-11-07T08:08:48.343Z,87.38
2022-11-07T08:11:16.823Z,87.57
2022-11-07T08:13:45.228Z,87.65
2022-11-07T08:16:13.680Z,88.00
2022-11-07T08:18:42.179Z,87.91
2022-11-07T08:21:10.707Z,87.90
2022-11-07T08:23:39.020Z,87.79
2022-11-07T08:26:07.796Z,87.26
2022-11-07T08:28:37.275Z,87.57
2022-11-07T08:31:14.243Z,87.51
2022-11-07T08:33:42.632Z,87.38
2022-11-07T08:36:13.286Z,87.85
2022-11-07T08:38:41.960Z,87.84
2022-11-07T08:41:10.359Z,88.00
2022-11-07T08:43:38.698Z,87.66
2022-11-07T08:46:07.072Z,87.58
2022-11-07T08:48:35.363Z,87.42
2022-11-07T08:51:04.017Z,87.68
2022-11-07T08:53:33.126Z,87.47
2022-11-07T08:56:10.757Z,87.32
2022-11-07T08:58:39.110Z,87.48
2022-11-07T09:01:10.020Z,87.36
2022-11-07T09:03:53.269Z,87.47
2022-11-07T09:06:25.077Z,86.94
2022-11-07T09:08:53.376Z,87.12
2022-11-07T09:11:22.062Z,87.05
2022-11-07T09:13:50.467Z,87.83
2022-11-07T09:16:18.859Z,87.51
2022-11-07T09:18:48.783Z,87.03
2022-11-07T09:21:22.102Z,86.89
2022-11-07T09:23:51.878Z,86.56
2022-11-07T09:26:20.400Z,86.20
2022-11-07T09:28:52.891Z,85.85
2022-11-07T09:31:23.548Z,85.42
2022-11-07T09:33:51.955Z,85.27
2022-11-07T09:36:22.149Z,85.00
2022-11-07T09:38:50.599Z,84.19
2022-11-07T09:41:30.450Z,84.25
2022-11-07T09:44:54.632Z,83.63
2022-11-07T09:47:24.761Z,83.17
2022-11-07T09:50:02.864Z,83.63
2022-11-07T09:52:53.442Z,83.05
2022-11-07T09:55:37.708Z,82.15
2022-11-07T09:58:20.825Z,81.56
2022-11-07T10:00:49.196Z,81.89
2022-11-07T10:03:18.067Z,81.88
2022-11-07T10:05:49.433Z,80.99
2022-11-07T10:08:30.989Z,81.21
2022-11-07T10:11:36.798Z,81.80
2022-11-07T10:14:41.772Z,81.53
2022-11-07T10:17:32.295Z,80.59
2022-11-07T10:20:08.641Z,79.88
2022-11-07T10:22:55.089Z,79.69
2022-11-07T10:25:35.121Z,79.90
2022-11-07T10:28:08.700Z,79.62
2022-11-07T10:30:37.075Z,80.06
2022-11-07T10:33:52.560Z,79.91
2022-11-07T10:36:32.159Z,80.04
2022-11-07T10:39:01.728Z,79.34
2022-11-07T10:41:34.380Z,79.37
2022-11-07T10:46:51.640Z,77.44
2022-11-07T10:49:31.767Z,77.93
2022-11-07T10:52:20.277Z,77.26
2022-11-07T10:54:48.732Z,77.59
2022-11-07T10:57:23.803Z,77.69
2022-11-07T10:59:56.593Z,76.72
2022-11-07T11:02:47.150Z,77.06
2022-11-07T11:05:43.248Z,76.61
2022-11-07T11:08:22.770Z,76.53
2022-11-07T11:10:51.555Z,76.07
2022-11-07T11:13:28.625Z,76.66
2022-11-07T11:16:12.658Z,76.57
2022-11-07T11:18:50.531Z,75.89
2022-11-07T11:21:18.968Z,75.80
2022-11-07T11:23:48.234Z,75.82
2022-11-07T11:26:22.220Z,75.30
2022-11-07T11:29:03.136Z,75.03
2022-11-07T11:31:39.841Z,74.73
2022-11-07T11:34:35.940Z,74.77
2022-11-07T11:37:11.785Z,75.01
2022-11-07T11:39:51.153Z,74.89
2022-11-07T11:42:48.623Z,74.99
2022-11-07T11:45:56.040Z,74.83
2022-11-07T11:48:42.973Z,74.33
2022-11-07T11:51:35.768Z,74.74
2022-11-07T11:54:04.632Z,74.83
2022-11-07T11:57:05.672Z,74.49
2022-11-07T11:59:36.645Z,74.82
2022-11-07T12:02:51.611Z,74.77
2022-11-07T12:05:30.850Z,74.80
2022-11-07T12:08:38.276Z,74.93
2022-11-07T12:11:51.205Z,75.09
2022-11-07T12:14:45.488Z,75.26
2022-11-07T12:17:52.652Z,74.88
2022-11-07T12:20:35.295Z,74.76
2022-11-07T12:23:18.676Z,74.90
2022-11-07T12:26:21.781Z,74.77
2022-11-07T12:28:53.779Z,74.56
2022-11-07T12:31:42.544Z,74.55
2022-11-07T12:34:57.174Z,74.52
2022-11-07T12:38:03.090Z,74.60
2022-11-07T12:40:50.265Z,74.52
2022-11-07T12:43:46.134Z,74.33
2022-11-07T12:46:56.361Z,74.16
2022-11-07T12:50:01.778Z,74.41
2022-11-07T12:52:49.168Z,74.16
2022-11-07T12:56:10.431Z,74.60
2022-11-07T12:58:41.898Z,74.77
2022-11-07T13:01:14.499Z,74.59
2022-11-07T13:04:25.811Z,74.80
2022-11-07T13:07:01.510Z,74.80
2022-11-07T13:09:42.381Z,74.79
2022-11-07T13:12:36.118Z,74.82
2022-11-07T13:15:07.289Z,74.51
2022-11-07T13:17:45.234Z,74.72
2022-11-07T13:20:33.300Z,74.47
2022-11-07T13:23:03.059Z,74.40
2022-11-07T13:25:35.569Z,74.46
2022-11-07T13:28:41.147Z,74.44
2022-11-07T13:31:37.170Z,74.67
2022-11-07T13:34:21.159Z,74.93
2022-11-07T13:36:51.171Z,74.93
2022-11-07T13:39:24.674Z,74.89
2022-11-07T13:41:54.470Z,74.71
2022-11-07T13:44:29.609Z,74.78
2022-11-07T13:47:02.757Z,75.00
2022-11-07T13:49:44.509Z,75.08
2022-11-07T13:52:30.910Z,74.92
2022-11-07T13:55:20.305Z,74.90
2022-11-07T13:57:59.202Z,74.45
2022-11-07T14:00:27.951Z,74.57
2022-11-07T14:02:59.594Z,75.00
2022-11-07T14:05:34.713Z,74.83
2022-11-07T14:08:09.255Z,75.02
2022-11-07T14:10:46.417Z,74.88
2022-11-07T14:13:41.529Z,74.86
2022-11-07T14:16:26.395Z,75.04
2022-11-07T14:18:58.323Z,75.00
2022-11-07T14:21:35.685Z,75.03
2022-11-07T14:24:05.445Z,75.33
2022-11-07T14:26:39.937Z,75.35
2022-11-07T14:29:09.918Z,75.55
2022-11-07T14:31:39.258Z,75.25
2022-11-07T14:34:37.018Z,75.43
2022-11-07T14:37:08.353Z,75.30
2022-11-07T14:39:36.838Z,75.36
2022-11-07T14:42:05.277Z,75.35
2022-11-07T14:44:53.927Z,75.87
2022-11-07T14:47:27.692Z,76.20
2022-11-07T14:49:56.474Z,75.81
2022-11-07T14:52:35.935Z,75.95
2022-11-07T14:55:18.186Z,75.73
2022-11-07T14:57:46.715Z,75.69
2022-11-07T15:00:21.817Z,75.58
2022-11-07T15:02:52.621Z,75.79
2022-11-07T15:05:46.056Z,75.56
2022-11-07T15:08:36.471Z,75.54
2022-11-07T15:11:15.772Z,75.54
2022-11-07T15:13:44.245Z,75.70
2022-11-07T15:16:22.416Z,75.93
2022-11-07T15:18:59.592Z,76.70
2022-11-07T15:21:36.663Z,77.02
2022-11-07T15:24:45.814Z,77.26
2022-11-07T15:27:40.253Z,77.09
2022-11-07T15:30:26.376Z,76.71
2022-11-07T15:32:54.771Z,76.79
2022-11-07T15:35:42.982Z,77.20
2022-11-07T15:38:27.880Z,77.39
2022-11-07T15:40:56.663Z,77.52
2022-11-07T15:43:25.293Z,77.79
2022-11-07T15:45:54.693Z,77.82
2022-11-07T15:48:29.918Z,77.79
2022-11-07T15:50:58.518Z,77.29
2022-11-07T15:53:30.935Z,77.06
2022-11-07T15:56:05.548Z,77.33
2022-11-07T15:58:33.956Z,77.18
2022-11-07T16:01:02.396Z,77.11
2022-11-07T16:03:30.889Z,77.12
2022-11-07T16:06:01.737Z,77.08
2022-11-07T16:08:31.214Z,77.01
2022-11-07T16:11:11.543Z,76.75
2022-11-07T16:13:42.040Z,76.70
2022-11-07T16:16:20.556Z,77.21
2022-11-07T16:18:51.335Z,76.89
2022-11-07T16:21:20.420Z,77.34
2022-11-07T16:23:49.846Z,77.24
2022-11-07T16:26:26.150Z,76.85
2022-11-07T16:28:54.566Z,77.27
2022-11-07T16:31:23.034Z,77.25
2022-11-07T16:33:53.351Z,77.47
2022-11-07T16:36:25.279Z,77.59
2022-11-07T16:38:54.084Z,77.48
2022-11-07T16:41:22.864Z,77.31
2022-11-07T16:43:51.851Z,77.28
2022-11-07T16:46:22.591Z,77.18
2022-11-07T16:49:18.470Z,77.82
2022-11-07T16:51:46.807Z,77.68
2022-11-07T16:54:16.869Z,77.87
2022-11-07T16:56:47.250Z,78.24
2022-11-07T16:59:22.078Z,78.39
2022-11-07T17:01:52.211Z,78.61
2022-11-07T17:04:20.669Z,78.58
2022-11-07T17:06:49.385Z,78.75
2022-11-07T17:09:20.451Z,79.12
2022-11-07T17:11:49.063Z,79.45
2022-11-07T17:14:17.595Z,79.22
2022-11-07T17:16:49.655Z,79.45
2022-11-07T17:19:17.998Z,79.75
2022-11-07T17:21:49.424Z,79.90
2022-11-07T17:24:17.933Z,79.75
2022-11-07T17:26:46.240Z,80.12
2022-11-07T17:29:15.801Z,80.07
2022-11-07T17:31:44.474Z,80.26
2022-11-07T17:34:12.908Z,80.54
2022-11-07T17:36:46.198Z,80.41
2022-11-07T17:39:23.347Z,80.61
2022-11-07T17:41:52.750Z,80.59
2022-11-07T17:44:21.698Z,80.76
2022-11-07T17:46:51.495Z,80.79
2022-11-07T17:49:22.400Z,80.83
2022-11-07T17:51:54.305Z,81.15
2022-11-07T17:54:28.198Z,81.44
2022-11-07T17:56:57.820Z,81.62
2022-11-07T17:59:26.731Z,81.58
2022-11-07T18:01:55.474Z,81.98
2022-11-07T18:04:23.937Z,81.99
2022-11-07T18:06:52.591Z,82.23
2022-11-07T18:09:20.906Z,82.45
2022-11-07T18:11:49.552Z,82.73
2022-11-07T18:14:17.883Z,83.12
2022-11-07T18:16:46.623Z,83.42
2022-11-07T18:19:17.518Z,83.79
2022-11-07T18:21:46.625Z,83.98
2022-11-07T18:24:15.502Z,84.12
2022-11-07T18:26:43.907Z,84.08
2022-11-07T18:29:14.745Z,84.17
2022-11-07T18:31:43.502Z,84.48
2022-11-07T18:34:13.537Z,84.54
2022-11-07T18:36:51.679Z,85.17
2022-11-07T18:39:22.742Z,85.26
2022-11-07T18:41:54.340Z,85.28
2022-11-07T18:44:22.692Z,85.67
2022-11-07T18:46:51.196Z,85.80
2022-11-07T18:49:19.781Z,86.00
2022-11-07T18:51:48.256Z,85.74
2022-11-07T18:54:16.615Z,85.81
2022-11-07T18:56:45.316Z,85.78
2022-11-07T18:59:13.697Z,85.85
2022-11-07T19:01:42.311Z,85.71
2022-11-07T19:04:12.966Z,85.74
2022-11-07T19:06:56.805Z,85.82
2022-11-07T19:09:28.416Z,86.19
2022-11-07T19:11:59.080Z,86.17
2022-11-07T19:14:28.968Z,86.21
2022-11-07T19:16:57.808Z,86.58
2022-11-07T19:19:26.887Z,86.96
2022-11-07T19:21:55.526Z,86.91
2022-11-07T19:24:24.012Z,87.00
2022-11-07T19:26:52.603Z,87.42
2022-11-07T19:29:21.016Z,87.27
2022-11-07T19:31:49.656Z,86.89
2022-11-07T19:34:19.437Z,86.86
2022-11-07T19:36:47.899Z,86.58
2022-11-07T19:39:16.578Z,86.80
2022-11-07T19:42:14.062Z,86.78
2022-11-07T19:44:48.410Z,87.25
2022-11-07T19:47:18.393Z,87.63
2022-11-07T19:49:46.769Z,87.65
2022-11-07T19:52:15.407Z,88.14
2022-11-07T19:54:45.509Z,88.07
2022-11-07T19:57:13.968Z,88.21
2022-11-07T19:59:42.573Z,88.42
2022-11-07T20:05:03.924Z,88.76
2022-11-07T20:07:32.757Z,88.72
2022-11-07T20:10:01.614Z,88.53
2022-11-07T20:12:30.092Z,87.94
2022-11-07T20:14:58.693Z,87.85
2022-11-07T20:17:27.230Z,87.88
2022-11-07T20:19:56.625Z,87.77
2022-11-07T20:22:27.307Z,87.70
2022-11-07T20:24:55.636Z,87.67
2022-11-07T20:27:24.077Z,87.75
2022-11-07T20:29:52.617Z,88.16
2022-11-07T20:32:21.019Z,88.25
2022-11-07T20:34:53.745Z,88.47
2022-11-07T20:37:23.042Z,88.79
2022-11-07T20:39:52.023Z,89.10
2022-11-07T20:42:20.678Z,89.31
2022-11-07T20:44:50.337Z,89.31
2022-11-07T20:47:18.668Z,89.28
2022-11-07T20:49:47.174Z,89.17
2022-11-07T20:52:15.798Z,89.13
2022-11-07T20:54:44.251Z,89.13
2022-11-07T20:57:12.636Z,89.16
2022-11-07T20:59:45.622Z,88.80
2022-11-07T21:02:14.785Z,89.21
2022-11-07T21:05:11.219Z,88.89
2022-11-07T21:07:32.117Z,88.50
2022-11-07T21:10:00.494Z,88.28
2022-11-07T21:12:29.031Z,88.37
2022-11-07T21:14:57.530Z,88.10
2022-11-07T21:17:25.942Z,87.99
2022-11-07T21:19:54.285Z,88.26
2022-11-07T21:22:28.056Z,88.33
2022-11-07T21:24:58.000Z,88.69
2022-11-07T21:27:26.481Z,88.67
2022-11-07T21:29:55.286Z,88.96
2022-11-07T21:32:23.754Z,89.13
2022-11-07T21:34:52.065Z,89.18
2022-11-07T21:37:20.698Z,89.54
2022-11-07T21:39:49.246Z,89.96
2022-11-07T21:42:18.263Z,90.17
2022-11-07T21:44:46.641Z,90.16
2022-11-07T21:47:14.935Z,90.35
2022-11-07T21:49:43.235Z,90.33
2022-11-07T21:52:11.967Z,90.53
2022-11-07T21:54:40.480Z,91.00
2022-11-07T21:57:08.817Z,91.13
2022-11-07T21:59:37.407Z,91.19
2022-11-07T22:02:05.800Z,91.11
2022-11-07T22:04:34.267Z,91.43
2022-11-07T22:07:03.414Z,91.74
2022-11-07T22:09:31.730Z,91.94
2022-11-07T22:12:00.045Z,92.11
2022-11-07T22:14:28.354Z,92.26
2022-11-07T22:16:57.702Z,92.38
2022-11-07T22:19:26.870Z,92.40
2022-11-07T22:21:55.407Z,92.48
2022-11-07T22:24:27.118Z,92.59
2022-11-07T22:26:57.200Z,92.89
2022-11-07T22:29:25.700Z,93.15
2022-11-07T22:31:54.256Z,93.11
2022-11-07T22:34:22.624Z,93.00
2022-11-07T22:36:51.093Z,92.96
2022-11-07T22:39:19.032Z,92.73
2022-11-07T22:41:47.427Z,92.78
2022-11-07T22:44:15.779Z,92.63
2022-11-07T22:46:44.156Z,92.34
2022-11-07T22:49:12.804Z,92.12
2022-11-07T22:51:41.265Z,91.81
2022-11-07T22:54:13.899Z,91.91
2022-11-07T22:56:42.288Z,91.55
2022-11-07T22:59:11.349Z,91.56
2022-11-07T23:01:42.487Z,91.68
2022-11-07T23:04:17.984Z,91.46
2022-11-07T23:06:46.984Z,91.89
2022-11-07T23:09:17.307Z,91.76
2022-11-07T23:11:47.529Z,91.87
2022-11-07T23:14:19.818Z,91.79
2022-11-07T23:16:57.208Z,92.16
2022-11-07T23:19:27.150Z,92.02
2022-11-07T23:21:57.326Z,92.05
2022-11-07T23:24:25.886Z,92.39
2022-11-07T23:26:54.378Z,92.48
2022-11-07T23:29:25.324Z,92.35
2022-11-07T23:31:54.048Z,92.89
2022-11-07T23:34:23.010Z,92.99
2022-11-07T23:36:52.810Z,93.03
2022-11-07T23:39:23.706Z,93.37
2022-11-07T23:41:52.017Z,93.11
2022-11-07T23:44:20.655Z,93.20
2022-11-07T23:47:07.094Z,93.39
2022-11-07T23:49:49.572Z,93.47
2022-11-07T23:52:20.217Z,93.28
2022-11-07T23:55:06.615Z,93.30
2022-11-07T23:57:53.191Z,93.63
